N624JX KSRQ-KLAS
Flight info
| Callsign | N624JX |
|---|---|
| Flight time | 4h 25m |
| Altitude | 40000 |
| Route | TIDES1 MOMIE PATOY Q116 JAWJA CUGAR KALBE CHNLT/N0515F430 FINGR DEDWT TXO LORAT J72 GUP Q162 HAHAA RKSTR4 |
| Aircraft | C750/M-SBDE3FGHRWXY/S |
Departure
| Time | 2026-05-03 23:47 |
|---|---|
| Airport | Sarasota Bradenton International Airport (KSRQ) |
Arrival
| Time | 2026-05-04 04:12 |
|---|---|
| Airport | Harry Reid International Airport (KLAS) |
| Time | Latitude | Longitude | Altitude | Speed | Heading |
|---|---|---|---|---|---|
| 2026-05-03 23:29 | 27.39332 | -82.54777 | 27 ft | 0 kts | 179° |
| 2026-05-03 23:36 | 27.39327 | -82.54780 | 27 ft | 1 kts | 226° |
| 2026-05-03 23:37 | 27.39330 | -82.54802 | 27 ft | 6 kts | 281° |
| 2026-05-03 23:37 | 27.39339 | -82.54850 | 27 ft | 6 kts | 275° |
| 2026-05-03 23:37 | 27.39299 | -82.54876 | 27 ft | 9 kts | 180° |
| 2026-05-03 23:37 | 27.39243 | -82.54876 | 27 ft | 7 kts | 180° |
| 2026-05-03 23:38 | 27.39195 | -82.54883 | 27 ft | 8 kts | 212° |
| 2026-05-03 23:38 | 27.39200 | -82.54941 | 27 ft | 9 kts | 305° |
| 2026-05-03 23:38 | 27.39247 | -82.54996 | 26 ft | 11 kts | 314° |
| 2026-05-03 23:38 | 27.39304 | -82.55062 | 28 ft | 11 kts | 314° |
| 2026-05-03 23:39 | 27.39353 | -82.55118 | 26 ft | 9 kts | 314° |
| 2026-05-03 23:39 | 27.39398 | -82.55169 | 26 ft | 11 kts | 314° |
| 2026-05-03 23:39 | 27.39447 | -82.55225 | 26 ft | 9 kts | 314° |
| 2026-05-03 23:39 | 27.39497 | -82.55282 | 26 ft | 12 kts | 315° |
| 2026-05-03 23:40 | 27.39555 | -82.55348 | 26 ft | 10 kts | 315° |
| 2026-05-03 23:40 | 27.39600 | -82.55401 | 27 ft | 9 kts | 314° |
| 2026-05-03 23:40 | 27.39647 | -82.55454 | 27 ft | 11 kts | 315° |
| 2026-05-03 23:40 | 27.39700 | -82.55515 | 27 ft | 11 kts | 314° |
| 2026-05-03 23:41 | 27.39754 | -82.55576 | 27 ft | 11 kts | 314° |
| 2026-05-03 23:41 | 27.39811 | -82.55642 | 27 ft | 11 kts | 314° |
| 2026-05-03 23:41 | 27.39861 | -82.55699 | 27 ft | 9 kts | 314° |
| 2026-05-03 23:41 | 27.39917 | -82.55749 | 27 ft | 11 kts | 332° |
| 2026-05-03 23:42 | 27.39982 | -82.55787 | 27 ft | 10 kts | 332° |
| 2026-05-03 23:42 | 27.40035 | -82.55840 | 27 ft | 10 kts | 314° |
| 2026-05-03 23:42 | 27.40080 | -82.55892 | 27 ft | 8 kts | 314° |
| 2026-05-03 23:42 | 27.40129 | -82.55948 | 27 ft | 13 kts | 315° |
| 2026-05-03 23:43 | 27.40197 | -82.56025 | 27 ft | 14 kts | 314° |
| 2026-05-03 23:43 | 27.40258 | -82.56095 | 27 ft | 12 kts | 314° |
| 2026-05-03 23:43 | 27.40309 | -82.56154 | 27 ft | 10 kts | 314° |
| 2026-05-03 23:43 | 27.40352 | -82.56203 | 27 ft | 9 kts | 314° |
| 2026-05-03 23:44 | 27.40394 | -82.56252 | 27 ft | 8 kts | 314° |
| 2026-05-03 23:44 | 27.40432 | -82.56295 | 27 ft | 7 kts | 314° |
| 2026-05-03 23:44 | 27.40457 | -82.56342 | 27 ft | 7 kts | 295° |
| 2026-05-03 23:44 | 27.40477 | -82.56389 | 27 ft | 6 kts | 295° |
| 2026-05-03 23:45 | 27.40496 | -82.56434 | 27 ft | 6 kts | 295° |
| 2026-05-03 23:45 | 27.40511 | -82.56472 | 27 ft | 6 kts | 288° |
| 2026-05-03 23:45 | 27.40492 | -82.56515 | 27 ft | 7 kts | 224° |
| 2026-05-03 23:45 | 27.40460 | -82.56548 | 27 ft | 5 kts | 211° |
| 2026-05-03 23:46 | 27.40442 | -82.56539 | 27 ft | 3 kts | 135° |
| 2026-05-03 23:46 | 27.40309 | -82.56388 | 27 ft | 71 kts | 134° |
| 2026-05-03 23:46 | 27.39754 | -82.55751 | 28 ft | 146 kts | 134° |
| 2026-05-03 23:46 | 27.39002 | -82.54903 | 470 ft | 154 kts | 131° |
| 2026-05-03 23:47 | 27.38290 | -82.54021 | 1098 ft | 151 kts | 127° |
| 2026-05-03 23:47 | 27.37560 | -82.53148 | 1714 ft | 156 kts | 132° |
| 2026-05-03 23:47 | 27.36769 | -82.52249 | 2235 ft | 168 kts | 131° |
| 2026-05-03 23:47 | 27.35913 | -82.51275 | 2744 ft | 183 kts | 131° |
| 2026-05-03 23:48 | 27.34975 | -82.50215 | 3271 ft | 199 kts | 131° |
| 2026-05-03 23:48 | 27.33952 | -82.49057 | 3804 ft | 218 kts | 132° |
| 2026-05-03 23:48 | 27.32840 | -82.47802 | 4344 ft | 235 kts | 133° |
| 2026-05-03 23:48 | 27.31663 | -82.46509 | 5124 ft | 238 kts | 137° |
| 2026-05-03 23:49 | 27.30140 | -82.45745 | 5734 ft | 246 kts | 174° |
| 2026-05-03 23:49 | 27.28472 | -82.46004 | 6523 ft | 244 kts | 206° |
| 2026-05-03 23:49 | 27.27133 | -82.47133 | 7301 ft | 239 kts | 225° |
| 2026-05-03 23:49 | 27.25992 | -82.48449 | 8240 ft | 234 kts | 234° |
| 2026-05-03 23:50 | 27.25349 | -82.50151 | 8815 ft | 243 kts | 258° |
| 2026-05-03 23:50 | 27.25156 | -82.51404 | 9251 ft | 249 kts | 261° |
| 2026-05-03 23:50 | 27.24771 | -82.54024 | 10120 ft | 259 kts | 260° |
| 2026-05-03 23:50 | 27.24523 | -82.56052 | 10685 ft | 266 kts | 268° |
| 2026-05-03 23:51 | 27.24867 | -82.58105 | 11370 ft | 271 kts | 287° |
| 2026-05-03 23:51 | 27.25826 | -82.59952 | 12057 ft | 280 kts | 305° |
| 2026-05-03 23:51 | 27.27156 | -82.61573 | 12744 ft | 284 kts | 308° |
| 2026-05-03 23:51 | 27.28508 | -82.63204 | 13435 ft | 287 kts | 307° |
| 2026-05-03 23:52 | 27.29869 | -82.64861 | 14073 ft | 290 kts | 307° |
| 2026-05-03 23:52 | 27.31243 | -82.66532 | 14679 ft | 292 kts | 306° |
| 2026-05-03 23:52 | 27.32614 | -82.68196 | 15290 ft | 294 kts | 306° |
| 2026-05-03 23:52 | 27.34008 | -82.69889 | 15922 ft | 296 kts | 306° |
| 2026-05-03 23:53 | 27.35413 | -82.71599 | 16558 ft | 299 kts | 305° |
| 2026-05-03 23:53 | 27.36827 | -82.73320 | 17206 ft | 301 kts | 305° |
| 2026-05-03 23:53 | 27.38316 | -82.75007 | 17817 ft | 311 kts | 312° |
| 2026-05-03 23:53 | 27.40289 | -82.76305 | 17757 ft | 350 kts | 328° |
| 2026-05-03 23:54 | 27.42601 | -82.77345 | 18152 ft | 360 kts | 330° |
| 2026-05-03 23:54 | 27.44918 | -82.78421 | 18758 ft | 361 kts | 328° |
| 2026-05-03 23:54 | 27.47374 | -82.79210 | 19264 ft | 379 kts | 344° |
| 2026-05-03 23:54 | 27.50063 | -82.79274 | 19763 ft | 392 kts | 353° |
| 2026-05-03 23:55 | 27.52807 | -82.79169 | 20262 ft | 398 kts | 354° |
| 2026-05-03 23:55 | 27.55589 | -82.79050 | 20760 ft | 402 kts | 354° |
| 2026-05-03 23:55 | 27.58403 | -82.78964 | 21257 ft | 405 kts | 352° |
| 2026-05-03 23:55 | 27.61236 | -82.78995 | 21756 ft | 410 kts | 352° |
| 2026-05-03 23:56 | 27.64106 | -82.78952 | 22263 ft | 415 kts | 353° |
| 2026-05-03 23:56 | 27.67010 | -82.78893 | 22779 ft | 419 kts | 352° |
| 2026-05-03 23:56 | 27.69939 | -82.78882 | 23304 ft | 422 kts | 352° |
| 2026-05-03 23:56 | 27.72888 | -82.78888 | 23797 ft | 426 kts | 352° |
| 2026-05-03 23:57 | 27.75870 | -82.78868 | 24244 ft | 430 kts | 352° |
| 2026-05-03 23:57 | 27.78871 | -82.78833 | 24716 ft | 433 kts | 352° |
| 2026-05-03 23:57 | 27.81894 | -82.78812 | 25178 ft | 435 kts | 352° |
| 2026-05-03 23:57 | 27.84932 | -82.78801 | 25648 ft | 438 kts | 351° |
| 2026-05-03 23:58 | 27.87985 | -82.78784 | 26150 ft | 440 kts | 351° |
| 2026-05-03 23:58 | 27.91054 | -82.78760 | 26645 ft | 442 kts | 351° |
| 2026-05-03 23:58 | 27.94135 | -82.78738 | 27140 ft | 443 kts | 351° |
| 2026-05-03 23:58 | 27.97222 | -82.78721 | 27642 ft | 445 kts | 351° |
| 2026-05-03 23:59 | 28.00320 | -82.78703 | 28145 ft | 446 kts | 351° |
| 2026-05-03 23:59 | 28.03433 | -82.78683 | 28618 ft | 449 kts | 350° |
| 2026-05-03 23:59 | 28.06565 | -82.78663 | 29094 ft | 451 kts | 350° |
| 2026-05-03 23:59 | 28.09711 | -82.78643 | 29583 ft | 453 kts | 350° |
| 2026-05-04 00:00 | 28.12875 | -82.78623 | 30081 ft | 455 kts | 350° |
| 2026-05-04 00:00 | 28.16051 | -82.78603 | 30505 ft | 457 kts | 349° |
| 2026-05-04 00:00 | 28.19240 | -82.78583 | 30973 ft | 459 kts | 349° |
| 2026-05-04 00:00 | 28.22444 | -82.78563 | 31399 ft | 461 kts | 349° |
| 2026-05-04 00:01 | 28.25657 | -82.78542 | 31838 ft | 463 kts | 349° |
| 2026-05-04 00:01 | 28.28886 | -82.78521 | 32277 ft | 464 kts | 348° |
| 2026-05-04 00:01 | 28.32120 | -82.78501 | 32723 ft | 466 kts | 348° |
| 2026-05-04 00:01 | 28.35365 | -82.78480 | 33173 ft | 467 kts | 348° |
| 2026-05-04 00:02 | 28.38619 | -82.78461 | 33608 ft | 468 kts | 347° |
| 2026-05-04 00:02 | 28.41794 | -82.78791 | 33958 ft | 449 kts | 335° |
| 2026-05-04 00:02 | 28.44758 | -82.79726 | 34325 ft | 440 kts | 329° |
| 2026-05-04 00:02 | 28.47650 | -82.80734 | 34765 ft | 441 kts | 329° |
| 2026-05-04 00:03 | 28.50629 | -82.81761 | 35151 ft | 443 kts | 329° |
| 2026-05-04 00:03 | 28.53582 | -82.82765 | 35529 ft | 444 kts | 329° |
| 2026-05-04 00:03 | 28.56500 | -82.83761 | 35906 ft | 444 kts | 328° |
| 2026-05-04 00:03 | 28.59496 | -82.84794 | 36298 ft | 444 kts | 328° |
| 2026-05-04 00:04 | 28.62416 | -82.85802 | 36682 ft | 445 kts | 328° |
| 2026-05-04 00:04 | 28.65424 | -82.86727 | 37056 ft | 456 kts | 333° |
| 2026-05-04 00:04 | 28.68619 | -82.87238 | 37441 ft | 472 kts | 341° |
| 2026-05-04 00:04 | 28.71905 | -82.87462 | 37868 ft | 473 kts | 342° |
| 2026-05-04 00:05 | 28.75191 | -82.87694 | 38291 ft | 472 kts | 341° |
| 2026-05-04 00:05 | 28.78463 | -82.87947 | 38773 ft | 471 kts | 341° |
| 2026-05-04 00:05 | 28.81737 | -82.88195 | 39130 ft | 471 kts | 341° |
| 2026-05-04 00:05 | 28.85007 | -82.88428 | 39490 ft | 471 kts | 342° |
| 2026-05-04 00:06 | 28.88274 | -82.88660 | 39862 ft | 470 kts | 342° |
| 2026-05-04 00:06 | 28.91539 | -82.88904 | 40077 ft | 473 kts | 342° |
| 2026-05-04 00:06 | 28.98232 | -82.89414 | 40083 ft | 491 kts | 342° |
| 2026-05-04 00:07 | 29.04881 | -82.90737 | 40083 ft | 479 kts | 329° |
| 2026-05-04 00:07 | 29.10905 | -82.93774 | 40090 ft | 470 kts | 316° |
| 2026-05-04 00:08 | 29.16266 | -82.98025 | 40089 ft | 475 kts | 312° |
| 2026-05-04 00:08 | 29.21694 | -83.02432 | 40086 ft | 480 kts | 312° |
| 2026-05-04 00:09 | 29.27122 | -83.06889 | 40091 ft | 480 kts | 312° |
| 2026-05-04 00:09 | 29.32566 | -83.11345 | 40093 ft | 481 kts | 312° |
| 2026-05-04 00:10 | 29.38007 | -83.15814 | 40118 ft | 483 kts | 312° |
| 2026-05-04 00:10 | 29.43464 | -83.20296 | 40092 ft | 481 kts | 313° |
| 2026-05-04 00:11 | 29.48906 | -83.24777 | 40093 ft | 481 kts | 313° |
| 2026-05-04 00:11 | 29.54347 | -83.29262 | 40092 ft | 482 kts | 313° |
| 2026-05-04 00:12 | 29.59791 | -83.33753 | 40090 ft | 482 kts | 313° |
| 2026-05-04 00:12 | 29.65231 | -83.38250 | 40090 ft | 482 kts | 313° |
| 2026-05-04 00:13 | 29.70683 | -83.42762 | 40094 ft | 483 kts | 313° |
| 2026-05-04 00:13 | 29.76140 | -83.47281 | 40098 ft | 483 kts | 313° |
| 2026-05-04 00:14 | 29.81592 | -83.51807 | 40104 ft | 483 kts | 313° |
| 2026-05-04 00:14 | 29.86124 | -83.55571 | 40103 ft | 482 kts | 313° |
| 2026-05-04 00:15 | 29.91559 | -83.60089 | 40106 ft | 482 kts | 313° |
| 2026-05-04 00:15 | 29.96994 | -83.64614 | 40133 ft | 482 kts | 314° |
| 2026-05-04 00:16 | 30.02482 | -83.69188 | 40106 ft | 483 kts | 314° |
| 2026-05-04 00:16 | 30.07931 | -83.73736 | 40106 ft | 483 kts | 314° |
| 2026-05-04 00:17 | 30.12988 | -83.78672 | 40092 ft | 468 kts | 304° |
| 2026-05-04 00:17 | 30.16911 | -83.84502 | 40097 ft | 453 kts | 294° |
| 2026-05-04 00:18 | 30.19656 | -83.90944 | 40100 ft | 442 kts | 284° |
| 2026-05-04 00:18 | 30.21440 | -83.97703 | 40114 ft | 440 kts | 281° |
| 2026-05-04 00:19 | 30.23174 | -84.04486 | 40109 ft | 439 kts | 281° |
| 2026-05-04 00:19 | 30.24863 | -84.11230 | 40112 ft | 439 kts | 281° |
| 2026-05-04 00:20 | 30.26585 | -84.18058 | 40109 ft | 440 kts | 281° |
| 2026-05-04 00:20 | 30.28292 | -84.24876 | 40103 ft | 443 kts | 281° |
| 2026-05-04 00:21 | 30.30008 | -84.31724 | 40107 ft | 445 kts | 281° |
| 2026-05-04 00:21 | 30.31715 | -84.38566 | 40110 ft | 445 kts | 281° |
| 2026-05-04 00:22 | 30.33442 | -84.45498 | 40109 ft | 445 kts | 281° |
| 2026-05-04 00:22 | 30.35153 | -84.52389 | 40110 ft | 445 kts | 281° |
| 2026-05-04 00:23 | 30.36849 | -84.59232 | 40110 ft | 445 kts | 281° |
| 2026-05-04 00:23 | 30.38554 | -84.66129 | 40108 ft | 445 kts | 281° |
| 2026-05-04 00:24 | 30.40259 | -84.73050 | 40111 ft | 448 kts | 281° |
| 2026-05-04 00:24 | 30.41969 | -84.79995 | 40111 ft | 448 kts | 281° |
| 2026-05-04 00:25 | 30.43673 | -84.86941 | 40110 ft | 448 kts | 281° |
| 2026-05-04 00:25 | 30.45374 | -84.93889 | 40112 ft | 448 kts | 281° |
| 2026-05-04 00:26 | 30.47081 | -85.00887 | 40110 ft | 448 kts | 281° |
| 2026-05-04 00:26 | 30.48776 | -85.07847 | 40110 ft | 450 kts | 281° |
| 2026-05-04 00:27 | 30.50474 | -85.14838 | 40096 ft | 450 kts | 281° |
| 2026-05-04 00:27 | 30.52169 | -85.21831 | 40100 ft | 450 kts | 281° |
| 2026-05-04 00:28 | 30.53859 | -85.28826 | 40113 ft | 450 kts | 281° |
| 2026-05-04 00:28 | 30.55545 | -85.35821 | 40109 ft | 450 kts | 281° |
| 2026-05-04 00:29 | 30.57227 | -85.42817 | 40116 ft | 450 kts | 281° |
| 2026-05-04 00:29 | 30.58910 | -85.49840 | 40103 ft | 452 kts | 282° |
| 2026-05-04 00:30 | 30.60592 | -85.56869 | 40107 ft | 452 kts | 282° |
| 2026-05-04 00:30 | 30.62269 | -85.63901 | 40108 ft | 452 kts | 282° |
| 2026-05-04 00:31 | 30.63943 | -85.70935 | 40106 ft | 452 kts | 282° |
| 2026-05-04 00:31 | 30.65601 | -85.77923 | 40115 ft | 452 kts | 282° |
| 2026-05-04 00:32 | 30.67268 | -85.84964 | 40109 ft | 452 kts | 282° |
| 2026-05-04 00:32 | 30.68930 | -85.92006 | 40120 ft | 452 kts | 282° |
| 2026-05-04 00:33 | 30.71350 | -86.02586 | 40112 ft | 450 kts | 278° |
| 2026-05-04 00:34 | 30.72577 | -86.09722 | 40117 ft | 450 kts | 278° |
| 2026-05-04 00:34 | 30.73835 | -86.16853 | 40113 ft | 450 kts | 278° |
| 2026-05-04 00:35 | 30.75064 | -86.24008 | 40124 ft | 452 kts | 279° |
| 2026-05-04 00:35 | 30.76311 | -86.31175 | 40136 ft | 452 kts | 279° |
| 2026-05-04 00:36 | 30.77541 | -86.38341 | 40141 ft | 452 kts | 279° |
| 2026-05-04 00:36 | 30.78775 | -86.45513 | 40141 ft | 452 kts | 279° |
| 2026-05-04 00:37 | 30.80001 | -86.52688 | 40144 ft | 452 kts | 279° |
| 2026-05-04 00:37 | 30.81224 | -86.59860 | 40143 ft | 452 kts | 279° |
| 2026-05-04 00:38 | 30.82445 | -86.67044 | 40143 ft | 453 kts | 279° |
| 2026-05-04 00:38 | 30.83662 | -86.74232 | 40135 ft | 453 kts | 279° |
| 2026-05-04 00:39 | 30.84875 | -86.81422 | 40111 ft | 453 kts | 279° |
| 2026-05-04 00:39 | 30.86083 | -86.88610 | 40113 ft | 452 kts | 279° |
| 2026-05-04 00:40 | 30.87287 | -86.95796 | 40104 ft | 452 kts | 279° |
| 2026-05-04 00:40 | 30.88479 | -87.02938 | 40105 ft | 452 kts | 279° |
| 2026-05-04 00:41 | 30.89683 | -87.10173 | 40104 ft | 452 kts | 279° |
| 2026-05-04 00:41 | 30.90867 | -87.17322 | 40100 ft | 452 kts | 279° |
| 2026-05-04 00:42 | 30.92063 | -87.24564 | 40091 ft | 452 kts | 279° |
| 2026-05-04 00:42 | 30.93240 | -87.31714 | 40114 ft | 454 kts | 279° |
| 2026-05-04 00:43 | 30.94439 | -87.39029 | 40110 ft | 457 kts | 280° |
| 2026-05-04 00:43 | 30.95627 | -87.46300 | 40122 ft | 457 kts | 280° |
| 2026-05-04 00:44 | 30.96810 | -87.53572 | 40119 ft | 457 kts | 280° |
| 2026-05-04 00:44 | 30.97989 | -87.60842 | 40127 ft | 457 kts | 280° |
| 2026-05-04 00:45 | 30.99156 | -87.68068 | 40125 ft | 457 kts | 280° |
| 2026-05-04 00:45 | 31.00327 | -87.75342 | 40118 ft | 456 kts | 280° |
| 2026-05-04 00:46 | 31.01493 | -87.82614 | 40118 ft | 456 kts | 280° |
| 2026-05-04 00:46 | 31.02654 | -87.89881 | 40119 ft | 456 kts | 280° |
| 2026-05-04 00:47 | 31.03811 | -87.97150 | 40115 ft | 456 kts | 280° |
| 2026-05-04 00:47 | 31.04964 | -88.04424 | 40116 ft | 456 kts | 280° |
| 2026-05-04 00:48 | 31.06113 | -88.11697 | 40118 ft | 455 kts | 281° |
| 2026-05-04 00:48 | 31.07256 | -88.18963 | 40117 ft | 455 kts | 281° |
| 2026-05-04 00:49 | 31.08395 | -88.26232 | 40124 ft | 456 kts | 281° |
| 2026-05-04 00:49 | 31.09530 | -88.33499 | 40125 ft | 455 kts | 281° |
| 2026-05-04 00:50 | 31.10661 | -88.40766 | 40118 ft | 455 kts | 281° |
| 2026-05-04 00:50 | 31.11788 | -88.48038 | 40111 ft | 455 kts | 281° |
| 2026-05-04 00:51 | 31.12907 | -88.55292 | 40119 ft | 454 kts | 281° |
| 2026-05-04 00:51 | 31.14022 | -88.62543 | 40120 ft | 454 kts | 281° |
| 2026-05-04 00:52 | 31.15133 | -88.69797 | 40119 ft | 454 kts | 281° |
| 2026-05-04 00:52 | 31.16240 | -88.77052 | 40121 ft | 454 kts | 281° |
| 2026-05-04 00:53 | 31.17343 | -88.84309 | 40121 ft | 454 kts | 281° |
| 2026-05-04 00:53 | 31.18438 | -88.91541 | 40120 ft | 451 kts | 281° |
| 2026-05-04 00:54 | 31.19527 | -88.98763 | 40120 ft | 452 kts | 281° |
| 2026-05-04 00:54 | 31.20612 | -89.05988 | 40118 ft | 452 kts | 281° |
| 2026-05-04 00:55 | 31.21693 | -89.13215 | 40123 ft | 452 kts | 281° |
| 2026-05-04 00:55 | 31.22770 | -89.20439 | 40124 ft | 452 kts | 281° |
| 2026-05-04 00:56 | 31.23841 | -89.27661 | 40122 ft | 449 kts | 281° |
| 2026-05-04 00:56 | 31.24727 | -89.33646 | 40132 ft | 451 kts | 282° |
| 2026-05-04 00:57 | 31.25791 | -89.40873 | 40129 ft | 451 kts | 281° |
| 2026-05-04 00:57 | 31.26852 | -89.48104 | 40130 ft | 451 kts | 281° |
| 2026-05-04 00:58 | 31.27909 | -89.55333 | 40130 ft | 451 kts | 281° |
| 2026-05-04 00:58 | 31.29415 | -89.62425 | 40116 ft | 449 kts | 290° |
| 2026-05-04 00:59 | 31.31495 | -89.69314 | 40120 ft | 449 kts | 290° |
| 2026-05-04 00:59 | 31.33554 | -89.76217 | 40122 ft | 449 kts | 290° |
| 2026-05-04 01:00 | 31.35628 | -89.83116 | 40122 ft | 449 kts | 290° |
| 2026-05-04 01:00 | 31.37682 | -89.90018 | 40120 ft | 449 kts | 290° |
| 2026-05-04 01:01 | 31.39741 | -89.96918 | 40120 ft | 449 kts | 290° |
| 2026-05-04 01:01 | 31.41786 | -90.03806 | 40115 ft | 445 kts | 290° |
| 2026-05-04 01:02 | 31.43819 | -90.10654 | 40113 ft | 446 kts | 290° |
| 2026-05-04 01:02 | 31.45849 | -90.17516 | 40112 ft | 446 kts | 290° |
| 2026-05-04 01:03 | 31.47876 | -90.24381 | 40116 ft | 446 kts | 290° |
| 2026-05-04 01:03 | 31.49899 | -90.31248 | 40111 ft | 446 kts | 290° |
| 2026-05-04 01:04 | 31.51919 | -90.38121 | 40108 ft | 446 kts | 290° |
| 2026-05-04 01:04 | 31.53927 | -90.44970 | 40114 ft | 444 kts | 290° |
| 2026-05-04 01:05 | 31.55931 | -90.51820 | 40116 ft | 444 kts | 290° |
| 2026-05-04 01:05 | 31.57933 | -90.58675 | 40116 ft | 444 kts | 290° |
| 2026-05-04 01:06 | 31.59919 | -90.65492 | 40119 ft | 444 kts | 290° |
| 2026-05-04 01:06 | 31.61912 | -90.72352 | 40119 ft | 444 kts | 290° |
| 2026-05-04 01:07 | 31.63899 | -90.79207 | 40123 ft | 441 kts | 290° |
| 2026-05-04 01:07 | 31.65864 | -90.85997 | 40120 ft | 440 kts | 290° |
| 2026-05-04 01:08 | 31.67828 | -90.92800 | 40123 ft | 440 kts | 290° |
| 2026-05-04 01:08 | 31.69787 | -90.99601 | 40120 ft | 440 kts | 290° |
| 2026-05-04 01:09 | 31.71743 | -91.06408 | 40118 ft | 440 kts | 290° |
| 2026-05-04 01:09 | 31.73694 | -91.13213 | 40116 ft | 440 kts | 290° |
| 2026-05-04 01:10 | 31.75631 | -91.19988 | 40115 ft | 435 kts | 290° |
| 2026-05-04 01:10 | 31.77557 | -91.26731 | 40108 ft | 436 kts | 290° |
| 2026-05-04 01:11 | 31.79479 | -91.33482 | 40132 ft | 436 kts | 290° |
| 2026-05-04 01:11 | 31.81394 | -91.40221 | 40117 ft | 438 kts | 290° |
| 2026-05-04 01:12 | 31.83319 | -91.47014 | 40121 ft | 438 kts | 290° |
| 2026-05-04 01:12 | 31.85240 | -91.53806 | 40102 ft | 437 kts | 290° |
| 2026-05-04 01:13 | 31.87141 | -91.60544 | 40107 ft | 433 kts | 290° |
| 2026-05-04 01:13 | 31.89038 | -91.67278 | 40105 ft | 434 kts | 290° |
| 2026-05-04 01:14 | 31.90930 | -91.74019 | 40103 ft | 434 kts | 290° |
| 2026-05-04 01:14 | 31.92820 | -91.80760 | 40102 ft | 434 kts | 290° |
| 2026-05-04 01:15 | 31.94706 | -91.87506 | 40097 ft | 434 kts | 290° |
| 2026-05-04 01:15 | 31.96583 | -91.94238 | 40100 ft | 430 kts | 290° |
| 2026-05-04 01:16 | 31.98444 | -92.00921 | 40098 ft | 430 kts | 290° |
| 2026-05-04 01:16 | 32.00302 | -92.07614 | 40099 ft | 430 kts | 290° |
| 2026-05-04 01:17 | 32.02157 | -92.14308 | 40102 ft | 430 kts | 290° |
| 2026-05-04 01:17 | 32.04010 | -92.21010 | 40101 ft | 430 kts | 290° |
| 2026-05-04 01:18 | 32.05892 | -92.27700 | 40111 ft | 431 kts | 292° |
| 2026-05-04 01:18 | 32.07996 | -92.34292 | 40105 ft | 427 kts | 292° |
| 2026-05-04 01:19 | 32.10058 | -92.40854 | 40370 ft | 423 kts | 292° |
| 2026-05-04 01:19 | 32.11079 | -92.44078 | 40761 ft | 417 kts | 292° |
| 2026-05-04 01:19 | 32.12084 | -92.47257 | 41148 ft | 411 kts | 291° |
| 2026-05-04 01:19 | 32.13071 | -92.50397 | 41541 ft | 405 kts | 291° |
| 2026-05-04 01:20 | 32.14043 | -92.53493 | 41934 ft | 400 kts | 291° |
| 2026-05-04 01:20 | 32.15005 | -92.56551 | 42336 ft | 395 kts | 291° |
| 2026-05-04 01:20 | 32.15941 | -92.59530 | 42735 ft | 390 kts | 291° |
| 2026-05-04 01:20 | 32.16888 | -92.62549 | 43106 ft | 386 kts | 290° |
| 2026-05-04 01:21 | 32.17814 | -92.65504 | 43098 ft | 393 kts | 290° |
| 2026-05-04 01:21 | 32.19739 | -92.71655 | 43113 ft | 405 kts | 290° |
| 2026-05-04 01:22 | 32.21719 | -92.77994 | 43113 ft | 418 kts | 290° |
| 2026-05-04 01:22 | 32.23769 | -92.84573 | 43108 ft | 430 kts | 290° |
| 2026-05-04 01:23 | 32.25855 | -92.91279 | 43108 ft | 440 kts | 290° |
| 2026-05-04 01:23 | 32.27931 | -92.97973 | 43099 ft | 426 kts | 290° |
| 2026-05-04 01:24 | 32.29978 | -93.04580 | 43093 ft | 430 kts | 290° |
| 2026-05-04 01:24 | 32.32044 | -93.11270 | 43097 ft | 430 kts | 290° |
| 2026-05-04 01:25 | 32.34094 | -93.17917 | 43089 ft | 431 kts | 290° |
| 2026-05-04 01:25 | 32.36143 | -93.24577 | 43094 ft | 431 kts | 290° |
| 2026-05-04 01:26 | 32.38176 | -93.31199 | 43099 ft | 431 kts | 290° |
| 2026-05-04 01:26 | 32.40218 | -93.37864 | 43098 ft | 431 kts | 290° |
| 2026-05-04 01:27 | 32.42257 | -93.44532 | 43089 ft | 431 kts | 290° |
| 2026-05-04 01:27 | 32.44292 | -93.51207 | 43089 ft | 431 kts | 290° |
| 2026-05-04 01:28 | 32.46324 | -93.57883 | 43098 ft | 431 kts | 290° |
| 2026-05-04 01:28 | 32.48351 | -93.64560 | 43086 ft | 431 kts | 290° |
| 2026-05-04 01:29 | 32.50376 | -93.71240 | 43087 ft | 431 kts | 290° |
| 2026-05-04 01:29 | 32.52396 | -93.77922 | 43092 ft | 431 kts | 290° |
| 2026-05-04 01:30 | 32.54411 | -93.84602 | 43084 ft | 429 kts | 290° |
| 2026-05-04 01:30 | 32.56420 | -93.91273 | 43092 ft | 431 kts | 290° |
| 2026-05-04 01:31 | 32.58428 | -93.97961 | 43089 ft | 431 kts | 290° |
| 2026-05-04 01:31 | 32.60434 | -94.04653 | 43080 ft | 431 kts | 290° |
| 2026-05-04 01:32 | 32.62435 | -94.11346 | 43080 ft | 430 kts | 290° |
| 2026-05-04 01:32 | 32.64432 | -94.18040 | 43077 ft | 431 kts | 290° |
| 2026-05-04 01:33 | 32.66422 | -94.24724 | 43073 ft | 429 kts | 290° |
| 2026-05-04 01:33 | 32.68407 | -94.31406 | 43069 ft | 429 kts | 290° |
| 2026-05-04 01:34 | 32.70388 | -94.38092 | 43073 ft | 429 kts | 290° |
| 2026-05-04 01:34 | 32.72353 | -94.44735 | 43072 ft | 429 kts | 290° |
| 2026-05-04 01:35 | 32.74327 | -94.51425 | 43069 ft | 429 kts | 290° |
| 2026-05-04 01:35 | 32.76298 | -94.58119 | 43045 ft | 429 kts | 290° |
| 2026-05-04 01:36 | 32.78264 | -94.64812 | 43070 ft | 429 kts | 290° |
| 2026-05-04 01:36 | 32.80226 | -94.71509 | 43105 ft | 429 kts | 290° |
| 2026-05-04 01:37 | 32.82186 | -94.78212 | 43067 ft | 429 kts | 290° |
| 2026-05-04 01:37 | 32.84143 | -94.84918 | 43067 ft | 429 kts | 290° |
| 2026-05-04 01:38 | 32.86094 | -94.91620 | 43064 ft | 429 kts | 290° |
| 2026-05-04 01:38 | 32.88043 | -94.98331 | 43065 ft | 429 kts | 290° |
| 2026-05-04 01:39 | 32.89988 | -95.05044 | 43067 ft | 429 kts | 290° |
| 2026-05-04 01:39 | 32.91929 | -95.11757 | 43068 ft | 429 kts | 290° |
| 2026-05-04 01:40 | 32.93866 | -95.18473 | 43073 ft | 429 kts | 290° |
| 2026-05-04 01:40 | 32.95800 | -95.25193 | 43068 ft | 429 kts | 289° |
| 2026-05-04 01:41 | 32.97731 | -95.31919 | 43069 ft | 429 kts | 289° |
| 2026-05-04 01:41 | 32.99659 | -95.38651 | 43069 ft | 430 kts | 289° |
| 2026-05-04 01:42 | 33.01586 | -95.45391 | 43072 ft | 430 kts | 289° |
| 2026-05-04 01:42 | 33.03507 | -95.52131 | 43072 ft | 430 kts | 289° |
| 2026-05-04 01:43 | 33.05427 | -95.58879 | 43097 ft | 429 kts | 289° |
| 2026-05-04 01:43 | 33.07019 | -95.64486 | 43068 ft | 430 kts | 289° |
| 2026-05-04 01:44 | 33.08930 | -95.71233 | 43041 ft | 430 kts | 289° |
| 2026-05-04 01:44 | 33.10840 | -95.77992 | 43066 ft | 430 kts | 289° |
| 2026-05-04 01:45 | 33.12747 | -95.84756 | 43065 ft | 430 kts | 289° |
| 2026-05-04 01:45 | 33.15601 | -95.94909 | 43065 ft | 430 kts | 289° |
| 2026-05-04 01:46 | 33.17499 | -96.01680 | 43066 ft | 430 kts | 289° |
| 2026-05-04 01:46 | 33.19393 | -96.08453 | 43066 ft | 430 kts | 289° |
| 2026-05-04 01:47 | 33.21285 | -96.15237 | 43071 ft | 431 kts | 289° |
| 2026-05-04 01:47 | 33.23174 | -96.22025 | 43070 ft | 431 kts | 289° |
| 2026-05-04 01:48 | 33.25060 | -96.28815 | 43062 ft | 430 kts | 289° |
| 2026-05-04 01:48 | 33.26938 | -96.35603 | 43057 ft | 431 kts | 289° |
| 2026-05-04 01:49 | 33.28793 | -96.42414 | 43056 ft | 431 kts | 289° |
| 2026-05-04 01:49 | 33.30651 | -96.49219 | 43053 ft | 429 kts | 289° |
| 2026-05-04 01:50 | 33.32499 | -96.56012 | 43045 ft | 430 kts | 289° |
| 2026-05-04 01:50 | 33.34345 | -96.62813 | 43048 ft | 430 kts | 289° |
| 2026-05-04 01:51 | 33.36187 | -96.69614 | 43048 ft | 430 kts | 289° |
| 2026-05-04 01:51 | 33.38024 | -96.76419 | 43046 ft | 430 kts | 289° |
| 2026-05-04 01:52 | 33.39859 | -96.83227 | 43039 ft | 430 kts | 289° |
| 2026-05-04 01:52 | 33.41682 | -96.90010 | 43037 ft | 427 kts | 288° |
| 2026-05-04 01:53 | 33.43499 | -96.96786 | 43041 ft | 427 kts | 288° |
| 2026-05-04 01:53 | 33.45311 | -97.03563 | 43047 ft | 427 kts | 288° |
| 2026-05-04 01:54 | 33.47121 | -97.10346 | 43044 ft | 428 kts | 288° |
| 2026-05-04 01:54 | 33.48931 | -97.17146 | 43058 ft | 429 kts | 288° |
| 2026-05-04 01:55 | 33.50741 | -97.23962 | 43062 ft | 429 kts | 288° |
| 2026-05-04 01:55 | 33.52547 | -97.30781 | 43061 ft | 429 kts | 288° |
| 2026-05-04 01:56 | 33.54349 | -97.37604 | 43056 ft | 429 kts | 288° |
| 2026-05-04 01:56 | 33.56147 | -97.44426 | 43048 ft | 429 kts | 288° |
| 2026-05-04 01:57 | 33.57942 | -97.51254 | 43033 ft | 429 kts | 288° |
| 2026-05-04 01:57 | 33.59732 | -97.58083 | 43038 ft | 429 kts | 288° |
| 2026-05-04 01:58 | 33.61511 | -97.64884 | 43022 ft | 426 kts | 288° |
| 2026-05-04 01:58 | 33.63282 | -97.71670 | 43021 ft | 426 kts | 288° |
| 2026-05-04 01:59 | 33.65050 | -97.78464 | 43012 ft | 426 kts | 288° |
| 2026-05-04 01:59 | 33.66813 | -97.85257 | 43014 ft | 426 kts | 288° |
| 2026-05-04 02:00 | 33.68572 | -97.92051 | 43011 ft | 426 kts | 288° |
| 2026-05-04 02:00 | 33.70330 | -97.98855 | 43018 ft | 427 kts | 288° |
| 2026-05-04 02:01 | 33.72079 | -98.05646 | 43018 ft | 426 kts | 288° |
| 2026-05-04 02:01 | 33.73825 | -98.12439 | 43018 ft | 426 kts | 288° |
| 2026-05-04 02:02 | 33.75568 | -98.19239 | 43017 ft | 426 kts | 288° |
| 2026-05-04 02:02 | 33.77307 | -98.26039 | 43009 ft | 426 kts | 288° |
| 2026-05-04 02:03 | 33.79030 | -98.32795 | 43013 ft | 426 kts | 288° |
| 2026-05-04 02:03 | 33.80756 | -98.39581 | 42994 ft | 423 kts | 287° |
| 2026-05-04 02:04 | 33.82476 | -98.46361 | 43012 ft | 424 kts | 287° |
| 2026-05-04 02:04 | 33.84193 | -98.53145 | 43009 ft | 424 kts | 287° |
| 2026-05-04 02:05 | 33.85906 | -98.59930 | 43009 ft | 424 kts | 287° |
| 2026-05-04 02:05 | 33.87615 | -98.66719 | 43003 ft | 424 kts | 287° |
| 2026-05-04 02:06 | 33.89321 | -98.73512 | 42999 ft | 423 kts | 287° |
| 2026-05-04 02:06 | 33.91016 | -98.80280 | 42988 ft | 425 kts | 287° |
| 2026-05-04 02:07 | 33.92716 | -98.87084 | 42977 ft | 424 kts | 287° |
| 2026-05-04 02:07 | 33.94413 | -98.93893 | 42974 ft | 425 kts | 287° |
| 2026-05-04 02:08 | 33.96116 | -99.00747 | 42961 ft | 424 kts | 287° |
| 2026-05-04 02:08 | 33.97804 | -99.07557 | 42961 ft | 424 kts | 287° |
| 2026-05-04 02:09 | 33.99485 | -99.14355 | 42939 ft | 423 kts | 287° |
| 2026-05-04 02:09 | 34.01148 | -99.21102 | 42946 ft | 423 kts | 287° |
| 2026-05-04 02:10 | 34.02580 | -99.28025 | 42941 ft | 423 kts | 281° |
| 2026-05-04 02:10 | 34.03601 | -99.35025 | 42951 ft | 424 kts | 282° |
| 2026-05-04 02:11 | 34.04632 | -99.42022 | 42956 ft | 424 kts | 281° |
| 2026-05-04 02:11 | 34.05645 | -99.49025 | 42932 ft | 422 kts | 281° |
| 2026-05-04 02:12 | 34.06656 | -99.55962 | 42927 ft | 423 kts | 281° |
| 2026-05-04 02:12 | 34.07662 | -99.62954 | 42930 ft | 423 kts | 281° |
| 2026-05-04 02:13 | 34.08669 | -99.69946 | 42933 ft | 423 kts | 281° |
| 2026-05-04 02:13 | 34.09672 | -99.76954 | 42943 ft | 425 kts | 281° |
| 2026-05-04 02:14 | 34.10675 | -99.83984 | 42926 ft | 425 kts | 281° |
| 2026-05-04 02:14 | 34.11671 | -99.91002 | 42944 ft | 424 kts | 281° |
| 2026-05-04 02:15 | 34.12663 | -99.98022 | 42939 ft | 424 kts | 281° |
| 2026-05-04 02:15 | 34.13652 | -100.05043 | 42931 ft | 424 kts | 281° |
| 2026-05-04 02:16 | 34.14637 | -100.12067 | 42946 ft | 425 kts | 281° |
| 2026-05-04 02:16 | 34.15618 | -100.19096 | 42948 ft | 424 kts | 281° |
| 2026-05-04 02:17 | 34.16592 | -100.26106 | 42941 ft | 423 kts | 281° |
| 2026-05-04 02:17 | 34.17562 | -100.33112 | 42930 ft | 423 kts | 280° |
| 2026-05-04 02:18 | 34.18528 | -100.40127 | 42931 ft | 423 kts | 280° |
| 2026-05-04 02:18 | 34.19490 | -100.47141 | 42922 ft | 424 kts | 280° |
| 2026-05-04 02:19 | 34.20449 | -100.54161 | 42917 ft | 424 kts | 280° |
| 2026-05-04 02:19 | 34.21403 | -100.61178 | 42929 ft | 424 kts | 280° |
| 2026-05-04 02:20 | 34.22355 | -100.68209 | 42928 ft | 424 kts | 280° |
| 2026-05-04 02:20 | 34.23302 | -100.75236 | 42928 ft | 424 kts | 280° |
| 2026-05-04 02:21 | 34.24244 | -100.82261 | 42932 ft | 424 kts | 280° |
| 2026-05-04 02:21 | 34.25184 | -100.89294 | 42936 ft | 424 kts | 280° |
| 2026-05-04 02:22 | 34.26118 | -100.96321 | 42921 ft | 424 kts | 280° |
| 2026-05-04 02:22 | 34.27049 | -101.03353 | 42925 ft | 424 kts | 280° |
| 2026-05-04 02:23 | 34.27976 | -101.10390 | 42921 ft | 424 kts | 280° |
| 2026-05-04 02:23 | 34.28900 | -101.17428 | 42923 ft | 424 kts | 280° |
| 2026-05-04 02:24 | 34.29819 | -101.24475 | 42920 ft | 424 kts | 280° |
| 2026-05-04 02:24 | 34.30735 | -101.31519 | 42923 ft | 424 kts | 280° |
| 2026-05-04 02:25 | 34.31639 | -101.38504 | 42929 ft | 423 kts | 279° |
| 2026-05-04 02:25 | 34.32544 | -101.45535 | 42943 ft | 422 kts | 279° |
| 2026-05-04 02:26 | 34.33446 | -101.52569 | 42960 ft | 423 kts | 279° |
| 2026-05-04 02:26 | 34.34344 | -101.59611 | 42969 ft | 423 kts | 279° |
| 2026-05-04 02:27 | 34.35240 | -101.66650 | 42969 ft | 424 kts | 279° |
| 2026-05-04 02:27 | 34.35984 | -101.72547 | 42977 ft | 424 kts | 279° |
| 2026-05-04 02:28 | 34.36873 | -101.79613 | 42972 ft | 424 kts | 279° |
| 2026-05-04 02:28 | 34.37758 | -101.86677 | 42962 ft | 425 kts | 279° |
| 2026-05-04 02:29 | 34.38638 | -101.93743 | 42945 ft | 425 kts | 279° |
| 2026-05-04 02:29 | 34.39515 | -102.00810 | 42929 ft | 424 kts | 279° |
| 2026-05-04 02:30 | 34.40390 | -102.07892 | 42925 ft | 426 kts | 279° |
| 2026-05-04 02:30 | 34.41262 | -102.14991 | 42932 ft | 426 kts | 279° |
| 2026-05-04 02:31 | 34.42124 | -102.22044 | 42942 ft | 426 kts | 279° |
| 2026-05-04 02:31 | 34.42988 | -102.29147 | 42932 ft | 426 kts | 279° |
| 2026-05-04 02:32 | 34.43848 | -102.36251 | 42952 ft | 426 kts | 279° |
| 2026-05-04 02:32 | 34.44704 | -102.43355 | 42946 ft | 426 kts | 279° |
| 2026-05-04 02:33 | 34.45555 | -102.50455 | 42946 ft | 426 kts | 278° |
| 2026-05-04 02:33 | 34.46401 | -102.57553 | 42954 ft | 426 kts | 278° |
| 2026-05-04 02:34 | 34.47244 | -102.64656 | 42956 ft | 426 kts | 278° |
| 2026-05-04 02:34 | 34.48084 | -102.71764 | 42959 ft | 426 kts | 278° |
| 2026-05-04 02:35 | 34.48918 | -102.78874 | 42964 ft | 426 kts | 278° |
| 2026-05-04 02:35 | 34.49841 | -102.85971 | 42964 ft | 426 kts | 281° |
| 2026-05-04 02:36 | 34.51016 | -102.93024 | 42979 ft | 426 kts | 281° |
| 2026-05-04 02:36 | 34.52167 | -103.00076 | 42980 ft | 426 kts | 281° |
| 2026-05-04 02:37 | 34.53329 | -103.07123 | 42974 ft | 426 kts | 281° |
| 2026-05-04 02:37 | 34.54477 | -103.14181 | 42945 ft | 426 kts | 281° |
| 2026-05-04 02:38 | 34.55625 | -103.21223 | 42930 ft | 426 kts | 281° |
| 2026-05-04 02:38 | 34.56767 | -103.28276 | 42933 ft | 427 kts | 281° |
| 2026-05-04 02:39 | 34.57907 | -103.35331 | 42895 ft | 426 kts | 281° |
| 2026-05-04 02:39 | 34.59041 | -103.42386 | 42895 ft | 426 kts | 281° |
| 2026-05-04 02:40 | 34.60171 | -103.49441 | 42895 ft | 426 kts | 281° |
| 2026-05-04 02:40 | 34.61300 | -103.56516 | 42874 ft | 428 kts | 280° |
| 2026-05-04 02:41 | 34.62427 | -103.63605 | 42880 ft | 428 kts | 280° |
| 2026-05-04 02:41 | 34.63543 | -103.70650 | 42857 ft | 428 kts | 280° |
| 2026-05-04 02:42 | 34.64661 | -103.77743 | 42851 ft | 428 kts | 280° |
| 2026-05-04 02:42 | 34.65775 | -103.84834 | 42854 ft | 428 kts | 280° |
| 2026-05-04 02:43 | 34.66897 | -103.92005 | 42849 ft | 432 kts | 280° |
| 2026-05-04 02:43 | 34.68018 | -103.99195 | 42851 ft | 433 kts | 280° |
| 2026-05-04 02:44 | 34.69136 | -104.06398 | 42851 ft | 435 kts | 279° |
| 2026-05-04 02:44 | 34.70252 | -104.13619 | 42843 ft | 435 kts | 279° |
| 2026-05-04 02:45 | 34.71363 | -104.20837 | 42843 ft | 435 kts | 279° |
| 2026-05-04 02:45 | 34.72471 | -104.28060 | 42847 ft | 435 kts | 279° |
| 2026-05-04 02:46 | 34.73574 | -104.35281 | 42873 ft | 435 kts | 279° |
| 2026-05-04 02:46 | 34.74673 | -104.42509 | 42906 ft | 435 kts | 279° |
| 2026-05-04 02:47 | 34.75767 | -104.49736 | 42930 ft | 435 kts | 279° |
| 2026-05-04 02:47 | 34.76858 | -104.56970 | 42953 ft | 435 kts | 279° |
| 2026-05-04 02:48 | 34.77944 | -104.64200 | 42957 ft | 435 kts | 279° |
| 2026-05-04 02:48 | 34.79026 | -104.71438 | 42962 ft | 435 kts | 279° |
| 2026-05-04 02:49 | 34.80104 | -104.78677 | 42953 ft | 435 kts | 279° |
| 2026-05-04 02:49 | 34.81178 | -104.85918 | 42937 ft | 435 kts | 279° |
| 2026-05-04 02:50 | 34.82246 | -104.93158 | 42933 ft | 435 kts | 279° |
| 2026-05-04 02:50 | 34.83309 | -105.00381 | 42871 ft | 433 kts | 279° |
| 2026-05-04 02:51 | 34.84366 | -105.07611 | 42896 ft | 434 kts | 279° |
| 2026-05-04 02:51 | 34.85415 | -105.14802 | 42895 ft | 434 kts | 279° |
| 2026-05-04 02:52 | 34.86466 | -105.22043 | 42922 ft | 435 kts | 279° |
| 2026-05-04 02:52 | 34.87519 | -105.29334 | 42903 ft | 434 kts | 279° |
| 2026-05-04 02:53 | 34.88558 | -105.36557 | 42940 ft | 437 kts | 279° |
| 2026-05-04 02:53 | 34.89602 | -105.43841 | 42940 ft | 436 kts | 279° |
| 2026-05-04 02:54 | 34.90641 | -105.51127 | 42964 ft | 437 kts | 279° |
| 2026-05-04 02:54 | 34.91677 | -105.58424 | 42966 ft | 437 kts | 279° |
| 2026-05-04 02:55 | 34.93231 | -105.69433 | 42971 ft | 439 kts | 279° |
| 2026-05-04 02:56 | 34.94259 | -105.76757 | 42972 ft | 438 kts | 278° |
| 2026-05-04 02:56 | 34.95283 | -105.84079 | 42970 ft | 438 kts | 278° |
| 2026-05-04 02:57 | 34.96302 | -105.91408 | 42969 ft | 438 kts | 278° |
| 2026-05-04 02:57 | 34.97318 | -105.98742 | 42964 ft | 438 kts | 278° |
| 2026-05-04 02:58 | 34.98327 | -106.06061 | 42948 ft | 438 kts | 278° |
| 2026-05-04 02:58 | 34.99330 | -106.13377 | 42936 ft | 438 kts | 278° |
| 2026-05-04 02:59 | 35.00330 | -106.20697 | 42950 ft | 437 kts | 278° |
| 2026-05-04 02:59 | 35.01326 | -106.28022 | 42969 ft | 438 kts | 278° |
| 2026-05-04 03:00 | 35.02318 | -106.35349 | 43006 ft | 438 kts | 278° |
| 2026-05-04 03:00 | 35.03298 | -106.42632 | 43039 ft | 434 kts | 278° |
| 2026-05-04 03:01 | 35.04274 | -106.49913 | 43065 ft | 434 kts | 278° |
| 2026-05-04 03:01 | 35.05245 | -106.57193 | 43064 ft | 435 kts | 278° |
| 2026-05-04 03:02 | 35.06213 | -106.64478 | 43067 ft | 435 kts | 278° |
| 2026-05-04 03:02 | 35.07169 | -106.71712 | 43065 ft | 433 kts | 278° |
| 2026-05-04 03:03 | 35.08117 | -106.78924 | 43086 ft | 429 kts | 278° |
| 2026-05-04 03:03 | 35.09061 | -106.86131 | 43087 ft | 430 kts | 278° |
| 2026-05-04 03:03 | 35.09532 | -106.89739 | 42873 ft | 430 kts | 278° |
| 2026-05-04 03:04 | 35.10001 | -106.93346 | 42866 ft | 430 kts | 278° |
| 2026-05-04 03:04 | 35.10937 | -107.00565 | 42871 ft | 430 kts | 278° |
| 2026-05-04 03:05 | 35.11868 | -107.07779 | 42877 ft | 428 kts | 277° |
| 2026-05-04 03:05 | 35.12786 | -107.14930 | 42875 ft | 427 kts | 277° |
| 2026-05-04 03:06 | 35.13701 | -107.22090 | 42884 ft | 427 kts | 277° |
| 2026-05-04 03:06 | 35.14732 | -107.29239 | 42878 ft | 429 kts | 282° |
| 2026-05-04 03:07 | 35.16262 | -107.36284 | 42909 ft | 428 kts | 282° |
| 2026-05-04 03:07 | 35.17755 | -107.43326 | 42907 ft | 428 kts | 282° |
| 2026-05-04 03:08 | 35.19261 | -107.50327 | 42912 ft | 426 kts | 282° |
| 2026-05-04 03:08 | 35.20750 | -107.57345 | 42925 ft | 428 kts | 282° |
| 2026-05-04 03:09 | 35.22252 | -107.64400 | 42925 ft | 427 kts | 282° |
| 2026-05-04 03:09 | 35.23487 | -107.70238 | 42925 ft | 427 kts | 282° |
| 2026-05-04 03:10 | 35.24972 | -107.77267 | 42924 ft | 426 kts | 282° |
| 2026-05-04 03:10 | 35.26450 | -107.84292 | 43111 ft | 427 kts | 282° |
| 2026-05-04 03:11 | 35.27926 | -107.91325 | 43110 ft | 427 kts | 282° |
| 2026-05-04 03:11 | 35.29400 | -107.98366 | 43088 ft | 427 kts | 282° |
| 2026-05-04 03:12 | 35.30867 | -108.05404 | 43053 ft | 426 kts | 282° |
| 2026-05-04 03:12 | 35.32330 | -108.12438 | 43014 ft | 426 kts | 281° |
| 2026-05-04 03:13 | 35.33789 | -108.19480 | 42968 ft | 427 kts | 281° |
| 2026-05-04 03:13 | 35.35245 | -108.26528 | 42929 ft | 427 kts | 281° |
| 2026-05-04 03:14 | 35.36696 | -108.33572 | 42917 ft | 427 kts | 281° |
| 2026-05-04 03:14 | 35.38143 | -108.40621 | 42919 ft | 427 kts | 281° |
| 2026-05-04 03:15 | 35.39587 | -108.47681 | 42904 ft | 429 kts | 281° |
| 2026-05-04 03:15 | 35.41035 | -108.54779 | 42904 ft | 429 kts | 281° |
| 2026-05-04 03:16 | 35.42467 | -108.61818 | 42888 ft | 429 kts | 281° |
| 2026-05-04 03:16 | 35.43903 | -108.68907 | 42886 ft | 428 kts | 281° |
| 2026-05-04 03:17 | 35.45337 | -108.76004 | 43074 ft | 429 kts | 281° |
| 2026-05-04 03:17 | 35.46764 | -108.83095 | 43072 ft | 429 kts | 281° |
| 2026-05-04 03:18 | 35.47607 | -108.90288 | 43063 ft | 426 kts | 271° |
| 2026-05-04 03:18 | 35.47646 | -108.97557 | 43027 ft | 425 kts | 270° |
| 2026-05-04 03:19 | 35.47694 | -109.04818 | 43021 ft | 426 kts | 270° |
| 2026-05-04 03:19 | 35.47714 | -109.12075 | 43002 ft | 426 kts | 270° |
| 2026-05-04 03:20 | 35.47743 | -109.19342 | 42999 ft | 426 kts | 270° |
| 2026-05-04 03:20 | 35.47761 | -109.26607 | 42972 ft | 426 kts | 270° |
| 2026-05-04 03:21 | 35.47777 | -109.33872 | 42939 ft | 426 kts | 270° |
| 2026-05-04 03:21 | 35.47788 | -109.41136 | 42896 ft | 426 kts | 270° |
| 2026-05-04 03:22 | 35.47795 | -109.48403 | 42882 ft | 426 kts | 270° |
| 2026-05-04 03:22 | 35.47798 | -109.55704 | 42862 ft | 428 kts | 269° |
| 2026-05-04 03:23 | 35.47796 | -109.63010 | 42862 ft | 428 kts | 269° |
| 2026-05-04 03:23 | 35.47789 | -109.70312 | 42854 ft | 428 kts | 269° |
| 2026-05-04 03:24 | 35.47779 | -109.77618 | 42854 ft | 428 kts | 269° |
| 2026-05-04 03:24 | 35.47764 | -109.84927 | 42846 ft | 429 kts | 269° |
| 2026-05-04 03:25 | 35.47744 | -109.92242 | 42847 ft | 429 kts | 269° |
| 2026-05-04 03:25 | 35.47720 | -109.99562 | 42841 ft | 429 kts | 269° |
| 2026-05-04 03:26 | 35.47691 | -110.06879 | 42840 ft | 429 kts | 269° |
| 2026-05-04 03:26 | 35.47658 | -110.14184 | 42851 ft | 428 kts | 269° |
| 2026-05-04 03:27 | 35.47621 | -110.21458 | 42841 ft | 426 kts | 269° |
| 2026-05-04 03:27 | 35.47580 | -110.28733 | 42840 ft | 426 kts | 269° |
| 2026-05-04 03:28 | 35.47534 | -110.36010 | 42826 ft | 428 kts | 269° |
| 2026-05-04 03:28 | 35.47483 | -110.43306 | 42827 ft | 428 kts | 269° |
| 2026-05-04 03:29 | 35.47429 | -110.50602 | 42819 ft | 426 kts | 269° |
| 2026-05-04 03:29 | 35.47370 | -110.57875 | 42818 ft | 426 kts | 269° |
| 2026-05-04 03:30 | 35.47306 | -110.65148 | 42819 ft | 426 kts | 269° |
| 2026-05-04 03:30 | 35.47239 | -110.72421 | 42818 ft | 426 kts | 269° |
| 2026-05-04 03:31 | 35.47167 | -110.79645 | 42816 ft | 426 kts | 268° |
| 2026-05-04 03:31 | 35.47091 | -110.86873 | 42821 ft | 421 kts | 268° |
| 2026-05-04 03:32 | 35.47010 | -110.94080 | 42819 ft | 422 kts | 268° |
| 2026-05-04 03:32 | 35.46926 | -111.01280 | 42829 ft | 422 kts | 268° |
| 2026-05-04 03:32 | 35.46883 | -111.04870 | 42396 ft | 419 kts | 268° |
| 2026-05-04 03:33 | 35.46838 | -111.08418 | 41852 ft | 413 kts | 268° |
| 2026-05-04 03:33 | 35.46794 | -111.11923 | 41309 ft | 408 kts | 268° |
| 2026-05-04 03:33 | 35.46748 | -111.15388 | 40776 ft | 404 kts | 268° |
| 2026-05-04 03:33 | 35.46702 | -111.18818 | 40258 ft | 401 kts | 268° |
| 2026-05-04 03:34 | 35.46656 | -111.22219 | 39730 ft | 397 kts | 268° |
| 2026-05-04 03:34 | 35.46609 | -111.25592 | 39208 ft | 393 kts | 268° |
| 2026-05-04 03:34 | 35.46562 | -111.28929 | 38710 ft | 389 kts | 268° |
| 2026-05-04 03:34 | 35.46514 | -111.32230 | 38160 ft | 386 kts | 268° |
| 2026-05-04 03:35 | 35.46465 | -111.35556 | 37649 ft | 394 kts | 268° |
| 2026-05-04 03:35 | 35.46414 | -111.38936 | 37127 ft | 399 kts | 268° |
| 2026-05-04 03:35 | 35.46362 | -111.42370 | 36620 ft | 406 kts | 268° |
| 2026-05-04 03:35 | 35.46308 | -111.45854 | 36068 ft | 412 kts | 268° |
| 2026-05-04 03:36 | 35.46252 | -111.49393 | 35524 ft | 418 kts | 269° |
| 2026-05-04 03:36 | 35.46194 | -111.52985 | 34970 ft | 425 kts | 269° |
| 2026-05-04 03:36 | 35.46134 | -111.56632 | 34436 ft | 431 kts | 269° |
| 2026-05-04 03:36 | 35.46072 | -111.60337 | 33859 ft | 438 kts | 269° |
| 2026-05-04 03:37 | 35.46008 | -111.64102 | 33250 ft | 442 kts | 269° |
| 2026-05-04 03:37 | 35.45943 | -111.67855 | 32668 ft | 439 kts | 269° |
| 2026-05-04 03:37 | 35.45877 | -111.71591 | 32091 ft | 436 kts | 268° |
| 2026-05-04 03:37 | 35.45810 | -111.75305 | 31515 ft | 435 kts | 268° |
| 2026-05-04 03:38 | 35.45743 | -111.78997 | 30948 ft | 432 kts | 268° |
| 2026-05-04 03:38 | 35.45674 | -111.82674 | 30422 ft | 430 kts | 268° |
| 2026-05-04 03:38 | 35.45676 | -111.86328 | 29938 ft | 428 kts | 272° |
| 2026-05-04 03:39 | 35.46544 | -111.93563 | 29990 ft | 430 kts | 276° |
| 2026-05-04 03:39 | 35.47448 | -112.00823 | 30021 ft | 431 kts | 276° |
| 2026-05-04 03:40 | 35.48366 | -112.08095 | 30028 ft | 431 kts | 276° |
| 2026-05-04 03:40 | 35.49271 | -112.15368 | 30034 ft | 429 kts | 276° |
| 2026-05-04 03:41 | 35.50170 | -112.22599 | 30014 ft | 429 kts | 276° |
| 2026-05-04 03:41 | 35.51064 | -112.29840 | 29998 ft | 429 kts | 276° |
| 2026-05-04 03:42 | 35.51954 | -112.37079 | 29963 ft | 429 kts | 276° |
| 2026-05-04 03:42 | 35.52839 | -112.44322 | 29933 ft | 429 kts | 276° |
| 2026-05-04 03:43 | 35.53722 | -112.51579 | 29871 ft | 430 kts | 276° |
| 2026-05-04 03:43 | 35.54601 | -112.58836 | 29874 ft | 429 kts | 276° |
| 2026-05-04 03:44 | 35.55473 | -112.66086 | 29723 ft | 430 kts | 276° |
| 2026-05-04 03:44 | 35.55907 | -112.69701 | 29360 ft | 426 kts | 276° |
| 2026-05-04 03:44 | 35.56338 | -112.73293 | 28979 ft | 424 kts | 275° |
| 2026-05-04 03:44 | 35.56763 | -112.76862 | 28613 ft | 421 kts | 275° |
| 2026-05-04 03:45 | 35.57185 | -112.80415 | 28248 ft | 419 kts | 275° |
| 2026-05-04 03:45 | 35.57606 | -112.83951 | 27888 ft | 417 kts | 275° |
| 2026-05-04 03:45 | 35.58022 | -112.87464 | 27514 ft | 415 kts | 275° |
| 2026-05-04 03:45 | 35.58435 | -112.90962 | 27151 ft | 413 kts | 275° |
| 2026-05-04 03:46 | 35.58844 | -112.94442 | 26792 ft | 411 kts | 275° |
| 2026-05-04 03:46 | 35.59251 | -112.97906 | 26424 ft | 409 kts | 275° |
| 2026-05-04 03:46 | 35.59655 | -113.01353 | 26075 ft | 407 kts | 275° |
| 2026-05-04 03:46 | 35.60056 | -113.04783 | 25716 ft | 405 kts | 275° |
| 2026-05-04 03:47 | 35.60455 | -113.08203 | 25358 ft | 403 kts | 275° |
| 2026-05-04 03:47 | 35.60851 | -113.11608 | 24997 ft | 401 kts | 275° |
| 2026-05-04 03:47 | 35.61243 | -113.14984 | 24640 ft | 398 kts | 274° |
| 2026-05-04 03:47 | 35.61631 | -113.18346 | 24291 ft | 397 kts | 274° |
| 2026-05-04 03:48 | 35.62018 | -113.21695 | 23945 ft | 395 kts | 274° |
| 2026-05-04 03:48 | 35.62402 | -113.25030 | 23582 ft | 393 kts | 274° |
| 2026-05-04 03:48 | 35.62783 | -113.28350 | 23222 ft | 393 kts | 274° |
| 2026-05-04 03:48 | 35.63164 | -113.31674 | 22856 ft | 393 kts | 274° |
| 2026-05-04 03:49 | 35.63542 | -113.35001 | 22507 ft | 393 kts | 274° |
| 2026-05-04 03:49 | 35.63923 | -113.38332 | 22155 ft | 394 kts | 274° |
| 2026-05-04 03:49 | 35.64299 | -113.41630 | 21821 ft | 395 kts | 274° |
| 2026-05-04 03:49 | 35.64678 | -113.44970 | 21477 ft | 396 kts | 274° |
| 2026-05-04 03:50 | 35.65057 | -113.48335 | 21124 ft | 394 kts | 274° |
| 2026-05-04 03:50 | 35.65531 | -113.51667 | 20768 ft | 397 kts | 277° |
| 2026-05-04 03:50 | 35.66093 | -113.54998 | 20428 ft | 398 kts | 278° |
| 2026-05-04 03:50 | 35.66644 | -113.58336 | 20081 ft | 399 kts | 277° |
| 2026-05-04 03:51 | 35.67186 | -113.61684 | 19733 ft | 399 kts | 277° |
| 2026-05-04 03:51 | 35.67732 | -113.65033 | 19371 ft | 400 kts | 278° |
| 2026-05-04 03:51 | 35.68282 | -113.68383 | 19027 ft | 402 kts | 278° |
| 2026-05-04 03:51 | 35.68834 | -113.71752 | 18678 ft | 402 kts | 278° |
| 2026-05-04 03:52 | 35.69382 | -113.75124 | 18327 ft | 403 kts | 278° |
| 2026-05-04 03:52 | 35.69931 | -113.78505 | 17953 ft | 403 kts | 277° |
| 2026-05-04 03:52 | 35.70479 | -113.81880 | 17772 ft | 403 kts | 277° |
| 2026-05-04 03:52 | 35.71026 | -113.85244 | 17446 ft | 401 kts | 277° |
| 2026-05-04 03:53 | 35.71568 | -113.88605 | 17086 ft | 400 kts | 277° |
| 2026-05-04 03:53 | 35.72109 | -113.91955 | 16757 ft | 399 kts | 278° |
| 2026-05-04 03:53 | 35.72650 | -113.95327 | 16394 ft | 401 kts | 278° |
| 2026-05-04 03:53 | 35.73191 | -113.98681 | 16044 ft | 392 kts | 278° |
| 2026-05-04 03:54 | 35.73704 | -114.01834 | 15706 ft | 360 kts | 278° |
| 2026-05-04 03:54 | 35.74172 | -114.04746 | 15410 ft | 334 kts | 277° |
| 2026-05-04 03:54 | 35.74467 | -114.06602 | 15221 ft | 320 kts | 277° |
| 2026-05-04 03:54 | 35.74884 | -114.09244 | 14957 ft | 310 kts | 277° |
| 2026-05-04 03:55 | 35.75297 | -114.11838 | 14693 ft | 308 kts | 277° |
| 2026-05-04 03:55 | 35.75707 | -114.14381 | 14414 ft | 307 kts | 277° |
| 2026-05-04 03:55 | 35.76502 | -114.16836 | 14108 ft | 312 kts | 294° |
| 2026-05-04 03:55 | 35.77565 | -114.19165 | 13876 ft | 312 kts | 295° |
| 2026-05-04 03:56 | 35.78606 | -114.21507 | 13612 ft | 311 kts | 294° |
| 2026-05-04 03:56 | 35.79630 | -114.23854 | 13329 ft | 312 kts | 294° |
| 2026-05-04 03:56 | 35.80661 | -114.26194 | 13030 ft | 310 kts | 294° |
| 2026-05-04 03:56 | 35.81693 | -114.28522 | 12752 ft | 309 kts | 294° |
| 2026-05-04 03:57 | 35.82768 | -114.30805 | 12452 ft | 309 kts | 301° |
| 2026-05-04 03:57 | 35.84397 | -114.32584 | 12149 ft | 319 kts | 324° |
| 2026-05-04 03:57 | 35.86499 | -114.33497 | 11853 ft | 325 kts | 349° |
| 2026-05-04 03:57 | 35.88748 | -114.33662 | 11685 ft | 324 kts | 356° |
| 2026-05-04 03:58 | 35.93270 | -114.33799 | 11123 ft | 325 kts | 356° |
| 2026-05-04 03:58 | 35.95515 | -114.33905 | 10906 ft | 318 kts | 356° |
| 2026-05-04 03:58 | 35.97740 | -114.34005 | 10916 ft | 320 kts | 356° |
| 2026-05-04 03:59 | 35.99975 | -114.34094 | 10913 ft | 321 kts | 356° |
| 2026-05-04 03:59 | 36.02214 | -114.34184 | 10912 ft | 323 kts | 356° |
| 2026-05-04 03:59 | 36.04450 | -114.34278 | 10914 ft | 322 kts | 356° |
| 2026-05-04 03:59 | 36.06689 | -114.34426 | 10858 ft | 323 kts | 351° |
| 2026-05-04 04:00 | 36.08732 | -114.35452 | 10341 ft | 315 kts | 320° |
| 2026-05-04 04:00 | 36.10040 | -114.37478 | 9806 ft | 295 kts | 291° |
| 2026-05-04 04:00 | 36.10714 | -114.39835 | 9415 ft | 288 kts | 281° |
| 2026-05-04 04:00 | 36.11276 | -114.42193 | 8995 ft | 285 kts | 281° |
| 2026-05-04 04:01 | 36.11833 | -114.44538 | 8569 ft | 283 kts | 281° |
| 2026-05-04 04:01 | 36.12387 | -114.46869 | 8137 ft | 282 kts | 281° |
| 2026-05-04 04:01 | 36.12938 | -114.49188 | 7706 ft | 280 kts | 281° |
| 2026-05-04 04:01 | 36.13480 | -114.51484 | 7271 ft | 277 kts | 281° |
| 2026-05-04 04:02 | 36.14016 | -114.53771 | 6841 ft | 276 kts | 281° |
| 2026-05-04 04:02 | 36.14546 | -114.56067 | 6420 ft | 280 kts | 281° |
| 2026-05-04 04:02 | 36.15064 | -114.58381 | 6026 ft | 276 kts | 281° |
| 2026-05-04 04:02 | 36.15578 | -114.60618 | 5912 ft | 265 kts | 281° |
| 2026-05-04 04:03 | 36.15898 | -114.62883 | 5882 ft | 261 kts | 264° |
| 2026-05-04 04:03 | 36.15728 | -114.65099 | 5935 ft | 261 kts | 259° |
| 2026-05-04 04:03 | 36.15545 | -114.67348 | 5942 ft | 264 kts | 260° |
| 2026-05-04 04:03 | 36.15375 | -114.69615 | 5944 ft | 265 kts | 261° |
| 2026-05-04 04:04 | 36.15202 | -114.71882 | 5952 ft | 264 kts | 261° |
| 2026-05-04 04:04 | 36.15024 | -114.74137 | 5957 ft | 262 kts | 259° |
| 2026-05-04 04:04 | 36.14845 | -114.76389 | 5958 ft | 263 kts | 260° |
| 2026-05-04 04:04 | 36.14669 | -114.78632 | 5972 ft | 261 kts | 260° |
| 2026-05-04 04:05 | 36.14503 | -114.80785 | 5968 ft | 245 kts | 259° |
| 2026-05-04 04:05 | 36.14336 | -114.82892 | 5915 ft | 238 kts | 259° |
| 2026-05-04 04:05 | 36.14183 | -114.84842 | 5907 ft | 217 kts | 259° |
| 2026-05-04 04:05 | 36.14045 | -114.86591 | 5914 ft | 201 kts | 259° |
| 2026-05-04 04:06 | 36.13904 | -114.88304 | 5918 ft | 199 kts | 258° |
| 2026-05-04 04:06 | 36.13766 | -114.90009 | 5918 ft | 199 kts | 258° |
| 2026-05-04 04:06 | 36.13632 | -114.91697 | 5922 ft | 194 kts | 258° |
| 2026-05-04 04:06 | 36.13513 | -114.93402 | 5914 ft | 194 kts | 263° |
| 2026-05-04 04:07 | 36.13604 | -114.95115 | 5651 ft | 204 kts | 269° |
| 2026-05-04 04:07 | 36.13733 | -114.96839 | 5391 ft | 198 kts | 268° |
| 2026-05-04 04:07 | 36.13841 | -114.98520 | 5154 ft | 196 kts | 266° |
| 2026-05-04 04:07 | 36.13920 | -115.00208 | 4912 ft | 196 kts | 266° |
| 2026-05-04 04:08 | 36.13997 | -115.01872 | 4676 ft | 190 kts | 269° |
| 2026-05-04 04:08 | 36.14076 | -115.03467 | 4452 ft | 181 kts | 271° |
| 2026-05-04 04:08 | 36.14152 | -115.04994 | 4219 ft | 174 kts | 271° |
| 2026-05-04 04:08 | 36.14222 | -115.06408 | 4157 ft | 153 kts | 270° |
| 2026-05-04 04:09 | 36.14207 | -115.07632 | 3958 ft | 133 kts | 266° |
| 2026-05-04 04:09 | 36.14192 | -115.08726 | 3784 ft | 124 kts | 266° |
| 2026-05-04 04:09 | 36.14176 | -115.09778 | 3614 ft | 121 kts | 265° |
| 2026-05-04 04:09 | 36.14154 | -115.10807 | 3445 ft | 117 kts | 263° |
| 2026-05-04 04:10 | 36.14022 | -115.11777 | 3313 ft | 114 kts | 258° |
| 2026-05-04 04:10 | 36.13829 | -115.12737 | 3164 ft | 114 kts | 245° |
| 2026-05-04 04:10 | 36.13368 | -115.13534 | 3034 ft | 116 kts | 227° |
| 2026-05-04 04:10 | 36.12674 | -115.14095 | 2854 ft | 123 kts | 206° |
| 2026-05-04 04:11 | 36.11874 | -115.14542 | 2675 ft | 125 kts | 208° |
| 2026-05-04 04:11 | 36.11082 | -115.15003 | 2469 ft | 122 kts | 207° |
| 2026-05-04 04:11 | 36.10322 | -115.15437 | 2299 ft | 124 kts | 208° |
| 2026-05-04 04:11 | 36.09532 | -115.15892 | 2112 ft | 125 kts | 207° |
| 2026-05-04 04:12 | 36.08887 | -115.16264 | 2125 ft | 56 kts | 205° |
| 2026-05-04 04:12 | 36.08636 | -115.16408 | 2132 ft | 28 kts | 205° |
| 2026-05-04 04:12 | 36.08486 | -115.16520 | 2136 ft | 23 kts | 219° |
| 2026-05-04 04:12 | 36.08393 | -115.16640 | 2145 ft | 15 kts | 235° |
| 2026-05-04 04:13 | 36.08342 | -115.16715 | 2149 ft | 8 kts | 222° |
| 2026-05-04 04:13 | 36.08289 | -115.16757 | 2154 ft | 9 kts | 208° |
| 2026-05-04 04:13 | 36.08270 | -115.16811 | 2158 ft | 5 kts | 282° |
| 2026-05-04 04:13 | 36.08293 | -115.16841 | 2160 ft | 7 kts | 6° |
| 2026-05-04 04:14 | 36.08361 | -115.16805 | 2158 ft | 13 kts | 25° |
| 2026-05-04 04:14 | 36.08452 | -115.16752 | 2155 ft | 15 kts | 24° |
| 2026-05-04 04:14 | 36.08553 | -115.16695 | 2152 ft | 17 kts | 25° |
| 2026-05-04 04:14 | 36.08661 | -115.16631 | 2147 ft | 18 kts | 24° |
| 2026-05-04 04:15 | 36.08776 | -115.16566 | 2145 ft | 19 kts | 25° |
| 2026-05-04 04:15 | 36.08899 | -115.16495 | 2140 ft | 19 kts | 25° |
| 2026-05-04 04:15 | 36.09012 | -115.16431 | 2136 ft | 19 kts | 25° |
| 2026-05-04 04:15 | 36.09138 | -115.16359 | 2132 ft | 21 kts | 25° |
| 2026-05-04 04:16 | 36.09250 | -115.16294 | 2128 ft | 18 kts | 25° |
| 2026-05-04 04:16 | 36.09365 | -115.16229 | 2125 ft | 18 kts | 25° |
| 2026-05-04 04:16 | 36.09476 | -115.16165 | 2122 ft | 17 kts | 25° |
| 2026-05-04 04:16 | 36.09588 | -115.16100 | 2116 ft | 18 kts | 25° |
| 2026-05-04 04:17 | 36.09688 | -115.16043 | 2113 ft | 15 kts | 25° |
| 2026-05-04 04:17 | 36.09786 | -115.15987 | 2110 ft | 15 kts | 25° |
| 2026-05-04 04:17 | 36.09875 | -115.15936 | 2108 ft | 13 kts | 25° |
| 2026-05-04 04:17 | 36.09933 | -115.15941 | 2108 ft | 7 kts | 314° |
| 2026-05-04 04:18 | 36.09948 | -115.15976 | 2110 ft | 5 kts | 295° |
| 2026-05-04 04:18 | 36.09928 | -115.16010 | 2112 ft | 6 kts | 210° |
| 2026-05-04 04:18 | 36.09904 | -115.16026 | 2112 ft | 3 kts | 206° |
| 2026-05-04 04:18 | 36.09890 | -115.16026 | 2112 ft | 2 kts | 153° |
| 2026-05-04 04:19 | 36.09882 | -115.16002 | 2111 ft | 2 kts | 115° |
| 2026-05-04 04:19 | 36.09881 | -115.16000 | 2111 ft | 0 kts | 115° |